Time;durP1;ratioP1;P1;durP2;ratioP2;P2;SDS_P1;SDS_P2;PMS_P1;PMS_P2;Temp;Humidity;BMP_temperature;BMP_pressure;BME280_temperature;BME280_humidity;BME280_pressure;Samples;Min_cycle;Max_cycle;Signal;HPM_P1;HPM_P2
2023/07/08 00:00:57;;;;;;;10.35;6.18;;;21.50;90.40;;;;;;5033605;28;20042;-48
2023/07/08 00:03:25;;;;;;;9.98;4.88;;;21.50;90.50;;;;;;5033925;28;20042;-47
2023/07/08 00:05:51;;;;;;;8.90;5.75;;;21.50;90.50;;;;;;5032444;28;20093;-48
2023/07/08 00:08:18;;;;;;;11.57;6.30;;;21.40;90.60;;;;;;5033845;28;20037;-47
2023/07/08 00:10:45;;;;;;;8.80;6.30;;;21.40;90.70;;;;;;5033753;28;20124;-48
2023/07/08 00:13:12;;;;;;;11.85;6.57;;;21.40;90.70;;;;;;5033778;28;20057;-50
2023/07/08 00:15:39;;;;;;;9.88;6.13;;;21.40;90.80;;;;;;5033548;28;20076;-47
2023/07/08 00:18:06;;;;;;;9.98;5.38;;;21.40;90.70;;;;;;5033371;28;20041;-48
2023/07/08 00:20:33;;;;;;;9.52;5.72;;;21.30;90.90;;;;;;5033600;28;20053;-48
2023/07/08 00:23:03;;;;;;;10.48;5.38;;;21.30;91.00;;;;;;5032319;28;20047;-49
2023/07/08 00:25:30;;;;;;;10.02;5.95;;;21.30;91.10;;;;;;5032213;28;20051;-48
2023/07/08 00:27:56;;;;;;;9.27;5.32;;;21.30;91.00;;;;;;5035192;28;20117;-48
2023/07/08 00:30:24;;;;;;;13.68;5.65;;;21.30;91.00;;;;;;5033071;28;20485;-47
2023/07/08 00:32:54;;;;;;;8.35;5.43;;;21.30;91.20;;;;;;5033964;28;20068;-47
2023/07/08 00:35:22;;;;;;;11.35;5.75;;;21.20;91.10;;;;;;5035299;28;20042;-46
2023/07/08 00:37:49;;;;;;;8.65;5.45;;;21.30;91.20;;;;;;5029891;28;20067;-45
2023/07/08 00:40:16;;;;;;;8.70;5.97;;;21.30;91.10;;;;;;5036024;28;20049;-49
2023/07/08 00:42:42;;;;;;;10.02;6.43;;;21.20;91.10;;;;;;5030903;28;20041;-45
2023/07/08 00:45:09;;;;;;;15.93;6.55;;;21.20;91.20;;;;;;5033133;28;20132;-50
2023/07/08 00:47:36;;;;;;;8.70;5.80;;;21.20;91.20;;;;;;5037191;28;20041;-48
2023/07/08 00:50:03;;;;;;;11.50;6.25;;;21.20;91.10;;;;;;5035686;28;20068;-48
2023/07/08 00:52:31;;;;;;;9.95;5.80;;;21.20;91.20;;;;;;5037367;28;20050;-48
2023/07/08 00:54:58;;;;;;;9.43;6.40;;;21.20;91.20;;;;;;5036012;28;20089;-47
2023/07/08 00:57:25;;;;;;;9.07;6.07;;;21.20;91.30;;;;;;5036746;28;20045;-48
2023/07/08 00:59:52;;;;;;;8.52;6.00;;;21.10;91.20;;;;;;5035733;28;20046;-49
2023/07/08 01:02:19;;;;;;;8.65;6.25;;;21.10;91.30;;;;;;5036884;28;20112;-46
2023/07/08 01:04:46;;;;;;;9.32;6.00;;;21.10;91.50;;;;;;5035525;28;20084;-47
2023/07/08 01:07:13;;;;;;;9.50;5.68;;;21.10;91.40;;;;;;5035658;28;20136;-45
2023/07/08 01:09:39;;;;;;;8.52;5.85;;;21.10;91.40;;;;;;5035837;28;20041;-51
2023/07/08 01:12:06;;;;;;;8.90;5.40;;;21.10;91.50;;;;;;5036973;28;20039;-48
2023/07/08 01:14:34;;;;;;;12.32;5.97;;;21.00;91.60;;;;;;5036739;28;20068;-46
2023/07/08 01:17:01;;;;;;;9.15;6.10;;;21.00;91.60;;;;;;5037104;28;20065;-51
2023/07/08 01:19:32;;;;;;;12.75;5.97;;;21.00;91.60;;;;;;5035201;28;20045;-46
2023/07/08 01:21:59;;;;;;;11.27;5.72;;;21.00;91.60;;;;;;5036667;28;20053;-47
2023/07/08 01:24:26;;;;;;;8.27;5.80;;;21.00;91.80;;;;;;5037012;28;20123;-48
2023/07/08 01:26:53;;;;;;;9.23;6.13;;;20.90;91.80;;;;;;5035397;28;20132;-47
2023/07/08 01:29:19;;;;;;;8.95;6.00;;;20.90;91.80;;;;;;5036428;28;20045;-50
2023/07/08 01:31:48;;;;;;;8.65;6.63;;;20.90;92.00;;;;;;5034911;28;20041;-47
2023/07/08 01:34:15;;;;;;;9.63;6.10;;;20.90;92.00;;;;;;5036495;28;20488;-46
2023/07/08 01:36:42;;;;;;;10.27;5.75;;;20.90;92.00;;;;;;5034934;28;20046;-47
2023/07/08 01:39:09;;;;;;;11.50;5.68;;;20.80;92.10;;;;;;5033967;28;20042;-44
2023/07/08 01:41:36;;;;;;;7.93;5.72;;;20.80;92.20;;;;;;5035277;28;20132;-48
2023/07/08 01:44:03;;;;;;;10.98;6.00;;;20.80;92.30;;;;;;5036341;28;20361;-48
2023/07/08 01:46:31;;;;;;;9.50;6.10;;;20.80;92.30;;;;;;5036336;28;20132;-49
2023/07/08 01:48:58;;;;;;;9.98;5.90;;;20.80;92.30;;;;;;5034803;28;20045;-46
2023/07/08 01:51:25;;;;;;;8.13;5.90;;;20.70;92.50;;;;;;5035915;28;20358;-48
2023/07/08 01:53:52;;;;;;;7.90;4.93;;;20.70;92.50;;;;;;5035685;28;20091;-45
2023/07/08 01:56:19;;;;;;;10.80;6.22;;;20.70;92.50;;;;;;5036209;28;20433;-46
2023/07/08 01:58:46;;;;;;;7.47;5.18;;;20.70;92.70;;;;;;5034577;28;20046;-46
2023/07/08 02:01:13;;;;;;;12.07;6.18;;;20.60;92.60;;;;;;5034687;28;20045;-46
2023/07/08 02:03:40;;;;;;;11.95;5.97;;;20.60;92.80;;;;;;5035809;28;20132;-50
2023/07/08 02:06:10;;;;;;;9.80;6.18;;;20.60;92.80;;;;;;5036095;28;20045;-51
2023/07/08 02:08:38;;;;;;;8.32;5.53;;;20.60;93.00;;;;;;5034389;28;20053;-46
2023/07/08 02:11:05;;;;;;;7.93;5.43;;;20.50;93.00;;;;;;5035504;28;20037;-47
2023/07/08 02:13:31;;;;;;;8.93;5.65;;;20.50;93.10;;;;;;5035588;28;20465;-49
2023/07/08 02:15:58;;;;;;;9.65;5.32;;;20.50;93.10;;;;;;5034474;28;20081;-46
2023/07/08 02:18:25;;;;;;;8.90;5.57;;;20.50;93.20;;;;;;5033875;28;20046;-49
2023/07/08 02:20:52;;;;;;;11.80;6.13;;;20.40;93.20;;;;;;5035674;28;20107;-51
2023/07/08 02:23:19;;;;;;;9.23;5.38;;;20.40;93.30;;;;;;5034317;28;20041;-49
2023/07/08 02:25:46;;;;;;;6.93;5.45;;;20.40;93.40;;;;;;5034120;28;20077;-50
2023/07/08 02:28:13;;;;;;;10.77;5.90;;;20.40;93.40;;;;;;5035506;28;20045;-49
2023/07/08 02:30:40;;;;;;;9.20;5.47;;;20.40;93.40;;;;;;5035456;28;20065;-46
2023/07/08 02:33:09;;;;;;;11.32;5.70;;;20.30;93.60;;;;;;5035235;28;20758;-48
2023/07/08 02:35:36;;;;;;;10.48;5.43;;;20.30;93.60;;;;;;5035386;28;20041;-46
2023/07/08 02:38:04;;;;;;;11.38;5.53;;;20.30;93.40;;;;;;5033977;28;20460;-46
2023/07/08 02:40:31;;;;;;;9.80;5.65;;;20.30;93.40;;;;;;5034925;28;20059;-47
2023/07/08 02:42:58;;;;;;;8.70;5.60;;;20.30;93.40;;;;;;5033971;28;20392;-47
2023/07/08 02:45:24;;;;;;;7.60;5.28;;;20.30;93.30;;;;;;5035019;28;20091;-46
2023/07/08 02:47:52;;;;;;;9.13;5.28;;;20.30;93.20;;;;;;5034793;28;20053;-49
2023/07/08 02:50:19;;;;;;;10.10;5.50;;;20.40;93.20;;;;;;5033225;28;20053;-45
2023/07/08 02:52:46;;;;;;;11.07;5.80;;;20.40;93.10;;;;;;5033327;28;20045;-51
2023/07/08 02:55:13;;;;;;;9.15;5.47;;;20.40;93.10;;;;;;5034984;28;20038;-45
2023/07/08 02:57:39;;;;;;;8.02;5.57;;;20.40;93.10;;;;;;5034454;28;20041;-47
2023/07/08 03:00:06;;;;;;;10.93;5.20;;;20.40;92.90;;;;;;5033708;28;20044;-49
2023/07/08 03:02:33;;;;;;;8.35;5.05;;;20.50;92.90;;;;;;5033033;28;20052;-47
2023/07/08 03:05:00;;;;;;;8.77;4.72;;;20.50;92.70;;;;;;5034831;28;20099;-46
2023/07/08 03:07:28;;;;;;;11.13;5.28;;;20.50;92.60;;;;;;5034825;28;20064;-49
2023/07/08 03:09:54;;;;;;;7.78;4.93;;;20.60;92.50;;;;;;5033357;28;20041;-51
2023/07/08 03:12:22;;;;;;;10.70;4.57;;;20.60;92.40;;;;;;5032729;28;20049;-48
2023/07/08 03:14:49;;;;;;;10.15;4.80;;;20.70;92.30;;;;;;5034950;28;20432;-51
2023/07/08 03:17:17;;;;;;;10.07;4.88;;;20.70;92.20;;;;;;5032952;28;20378;-48
2023/07/08 03:19:45;;;;;;;8.85;5.07;;;20.80;92.20;;;;;;5034634;28;20044;-49
2023/07/08 03:22:11;;;;;;;10.50;5.15;;;20.80;92.20;;;;;;5032965;28;20659;-49
2023/07/08 03:24:45;;;;;;;7.68;5.13;;;20.90;92.10;;;;;;5032860;28;20132;-45
2023/07/08 03:27:16;;;;;;;8.05;4.50;;;20.90;92.10;;;;;;5033389;28;20050;-48
2023/07/08 03:29:46;;;;;;;8.48;4.93;;;20.90;92.10;;;;;;5033535;28;20443;-46
2023/07/08 03:32:13;;;;;;;11.68;4.97;;;20.90;92.10;;;;;;5032876;28;20045;-49
2023/07/08 03:34:40;;;;;;;9.90;4.90;;;21.00;92.10;;;;;;5032900;28;20405;-46
2023/07/08 03:37:07;;;;;;;8.10;4.65;;;21.00;92.10;;;;;;5034505;28;20041;-48
2023/07/08 03:39:34;;;;;;;8.68;4.63;;;21.00;92.10;;;;;;5034451;28;20068;-46
2023/07/08 03:42:01;;;;;;;8.38;4.70;;;21.00;92.10;;;;;;5032456;28;20046;-47
2023/07/08 03:44:28;;;;;;;8.15;4.53;;;21.00;92.10;;;;;;5032559;28;20044;-46
2023/07/08 03:46:55;;;;;;;12.07;4.68;;;21.00;92.20;;;;;;5034205;28;20047;-51
2023/07/08 03:49:23;;;;;;;9.52;4.65;;;21.00;92.20;;;;;;5032786;28;20457;-47
2023/07/08 03:51:51;;;;;;;8.07;4.90;;;21.00;92.20;;;;;;5033828;28;20056;-50
2023/07/08 03:54:18;;;;;;;6.40;4.63;;;21.00;92.30;;;;;;5033520;28;20121;-48
2023/07/08 03:56:46;;;;;;;10.75;4.70;;;21.10;92.40;;;;;;5032550;28;20566;-51
2023/07/08 03:59:13;;;;;;;8.02;4.70;;;21.10;92.40;;;;;;5032350;28;20064;-46
2023/07/08 04:01:41;;;;;;;10.15;4.50;;;21.00;92.40;;;;;;5031873;28;20137;-45
2023/07/08 04:04:10;;;;;;;8.90;4.50;;;21.00;92.40;;;;;;5032701;28;20053;-46
2023/07/08 04:06:37;;;;;;;11.77;4.78;;;21.00;92.50;;;;;;5032774;28;20069;-47
2023/07/08 04:09:04;;;;;;;7.72;4.32;;;21.00;92.60;;;;;;5032236;28;20543;-49
2023/07/08 04:11:30;;;;;;;8.52;4.38;;;21.10;92.60;;;;;;5033551;28;20041;-48
2023/07/08 04:13:57;;;;;;;10.23;5.13;;;21.00;92.70;;;;;;5033399;28;20128;-49
2023/07/08 04:16:24;;;;;;;7.80;4.97;;;21.10;92.70;;;;;;5033686;28;20042;-47
2023/07/08 04:18:53;;;;;;;8.38;4.53;;;21.10;92.90;;;;;;5033909;28;20560;-47
2023/07/08 04:21:20;;;;;;;7.88;4.75;;;21.10;92.80;;;;;;5033239;28;20041;-46
2023/07/08 04:23:49;;;;;;;10.60;5.00;;;21.10;92.80;;;;;;5033208;28;20478;-47
2023/07/08 04:26:15;;;;;;;6.15;4.35;;;21.10;92.80;;;;;;5033721;28;20128;-46
2023/07/08 04:28:42;;;;;;;9.27;4.88;;;21.00;92.90;;;;;;5033329;28;20052;-44
2023/07/08 04:31:09;;;;;;;9.35;5.00;;;21.10;93.00;;;;;;5033681;28;20044;-44
2023/07/08 04:33:36;;;;;;;9.30;4.95;;;21.10;92.90;;;;;;5033542;28;20046;-43
2023/07/08 04:36:03;;;;;;;9.48;5.35;;;21.10;93.10;;;;;;5033916;28;20038;-45
2023/07/08 04:38:30;;;;;;;10.02;4.80;;;21.10;93.10;;;;;;5033340;28;20052;-44
2023/07/08 04:40:57;;;;;;;9.38;4.40;;;21.10;93.10;;;;;;5033284;28;20061;-46
2023/07/08 04:43:28;;;;;;;8.80;4.28;;;21.10;93.20;;;;;;5033136;28;20048;-46
2023/07/08 04:45:56;;;;;;;8.35;4.60;;;21.10;93.30;;;;;;5033715;28;20353;-47
2023/07/08 04:48:24;;;;;;;9.50;4.68;;;21.20;93.30;;;;;;5033785;28;20037;-43
2023/07/08 04:50:52;;;;;;;7.07;4.35;;;21.20;93.30;;;;;;5033002;28;20037;-46
2023/07/08 04:53:18;;;;;;;7.10;4.63;;;21.30;93.30;;;;;;5032985;28;20110;-43
2023/07/08 04:55:45;;;;;;;10.60;4.50;;;21.40;93.50;;;;;;5033090;28;20397;-43
2023/07/08 04:58:12;;;;;;;7.88;4.40;;;21.40;93.30;;;;;;5033356;28;20045;-47
2023/07/08 05:00:39;;;;;;;9.90;4.35;;;21.50;93.30;;;;;;5033027;28;20038;-43
2023/07/08 05:03:06;;;;;;;7.82;4.32;;;21.60;93.20;;;;;;5033080;28;20539;-43
2023/07/08 05:05:33;;;;;;;7.57;4.20;;;21.70;93.10;;;;;;5033061;28;20048;-48
2023/07/08 05:08:00;;;;;;;8.45;4.60;;;21.90;93.10;;;;;;5033015;28;20488;-47
2023/07/08 05:10:27;;;;;;;9.40;4.40;;;22.00;93.00;;;;;;5033107;28;20049;-44
2023/07/08 05:12:54;;;;;;;7.03;4.38;;;22.10;92.90;;;;;;5035615;28;20052;-44
2023/07/08 05:15:20;;;;;;;8.75;4.60;;;22.20;93.00;;;;;;5036600;28;20037;-48
2023/07/08 05:17:47;;;;;;;10.13;4.45;;;22.30;92.90;;;;;;5037167;28;20069;-46
2023/07/08 05:20:14;;;;;;;6.70;4.15;;;22.40;92.90;;;;;;5036555;28;20034;-45
2023/07/08 05:22:42;;;;;;;10.05;4.25;;;22.40;92.70;;;;;;5036476;28;20045;-44
2023/07/08 05:25:09;;;;;;;11.02;4.35;;;22.50;92.80;;;;;;5036959;28;20049;-45
2023/07/08 05:27:36;;;;;;;7.00;3.83;;;22.50;92.70;;;;;;5036868;28;20041;-49
2023/07/08 05:30:03;;;;;;;9.43;4.25;;;22.60;92.70;;;;;;5037001;28;20053;-44
2023/07/08 05:32:30;;;;;;;9.02;4.55;;;22.70;92.70;;;;;;5036123;28;20550;-49
2023/07/08 05:34:57;;;;;;;5.38;3.90;;;22.80;92.50;;;;;;5036623;28;20438;-45
2023/07/08 05:37:25;;;;;;;12.30;4.55;;;22.90;92.60;;;;;;5036888;28;20164;-48
2023/07/08 05:39:52;;;;;;;9.85;4.10;;;23.00;92.70;;;;;;5036684;28;20034;-52
2023/07/08 05:42:19;;;;;;;8.60;4.00;;;23.10;92.60;;;;;;5036490;28;20061;-52
2023/07/08 05:44:45;;;;;;;5.85;3.92;;;23.20;92.40;;;;;;5036083;28;20045;-46
2023/07/08 05:47:12;;;;;;;6.65;3.85;;;23.20;92.50;;;;;;5036596;28;20049;-51
2023/07/08 05:49:39;;;;;;;9.70;4.40;;;23.30;92.20;;;;;;5036312;28;20041;-49
2023/07/08 05:52:10;;;;;;;9.77;4.07;;;23.40;92.20;;;;;;5036322;28;20043;-48
2023/07/08 05:54:37;;;;;;;7.70;3.63;;;23.50;92.30;;;;;;5036474;28;20048;-46
2023/07/08 05:57:04;;;;;;;10.82;4.13;;;23.60;92.20;;;;;;5036122;28;20076;-45
2023/07/08 05:59:30;;;;;;;9.77;4.28;;;23.70;92.30;;;;;;5036563;28;20069;-44
2023/07/08 06:01:59;;;;;;;11.45;3.97;;;23.80;92.00;;;;;;5036278;28;20060;-45
2023/07/08 06:04:26;;;;;;;6.78;4.30;;;23.90;91.90;;;;;;5035768;28;20079;-45
2023/07/08 06:06:53;;;;;;;5.72;3.30;;;24.00;91.90;;;;;;5035838;28;20045;-47
2023/07/08 06:09:20;;;;;;;6.25;3.80;;;24.00;91.80;;;;;;5035576;28;20049;-46
2023/07/08 06:11:46;;;;;;;9.95;3.65;;;24.00;91.70;;;;;;5035660;28;20056;-47
2023/07/08 06:14:13;;;;;;;10.50;4.10;;;24.10;91.70;;;;;;5034910;28;20064;-50
2023/07/08 06:16:40;;;;;;;7.72;3.30;;;24.10;91.80;;;;;;5035922;28;20040;-51
2023/07/08 06:19:08;;;;;;;6.28;3.67;;;24.10;91.80;;;;;;5035688;28;20128;-46
2023/07/08 06:21:35;;;;;;;7.55;4.00;;;24.10;91.90;;;;;;5035542;28;20049;-47
2023/07/08 06:24:02;;;;;;;7.28;4.22;;;24.10;91.90;;;;;;5034929;28;20046;-47
2023/07/08 06:26:29;;;;;;;10.82;4.25;;;24.20;91.90;;;;;;5035637;28;20084;-48
2023/07/08 06:28:55;;;;;;;6.95;3.85;;;24.30;91.90;;;;;;5035428;28;20595;-49
2023/07/08 06:31:22;;;;;;;7.70;3.80;;;24.20;91.90;;;;;;5035463;28;20052;-46
2023/07/08 06:33:49;;;;;;;6.65;3.90;;;24.20;92.00;;;;;;5035288;28;20088;-51
2023/07/08 06:36:16;;;;;;;8.57;3.97;;;24.20;92.20;;;;;;5035558;28;20431;-46
2023/07/08 06:38:42;;;;;;;6.20;4.20;;;24.20;92.20;;;;;;5035781;28;20408;-47
2023/07/08 06:41:09;;;;;;;6.55;4.07;;;24.20;92.30;;;;;;5035623;28;20373;-52
2023/07/08 06:43:36;;;;;;;5.88;3.97;;;24.10;92.40;;;;;;5033890;28;20041;-50
2023/07/08 06:46:15;;;;;;;9.23;3.78;;;24.10;92.50;;;;;;5035560;28;20041;-52
2023/07/08 06:48:42;;;;;;;7.35;3.85;;;24.20;92.70;;;;;;5034876;28;20125;-50
2023/07/08 06:51:09;;;;;;;6.22;3.75;;;24.10;92.70;;;;;;5035300;28;20515;-46
2023/07/08 06:53:36;;;;;;;13.60;4.15;;;24.20;92.70;;;;;;5034847;28;20049;-47
2023/07/08 06:56:02;;;;;;;7.75;3.78;;;24.20;92.70;;;;;;5035505;28;20038;-50
2023/07/08 06:58:29;;;;;;;7.22;4.35;;;24.20;92.80;;;;;;5034798;28;20052;-50
2023/07/08 07:00:56;;;;;;;7.60;3.95;;;24.20;92.80;;;;;;5033629;28;20041;-48
2023/07/08 07:03:23;;;;;;;7.43;3.72;;;24.30;92.90;;;;;;5034661;28;20080;-48
2023/07/08 07:05:50;;;;;;;8.88;3.95;;;24.30;92.90;;;;;;5035136;28;20053;-48
2023/07/08 07:08:16;;;;;;;8.20;3.97;;;24.40;93.10;;;;;;5035423;28;20041;-47
2023/07/08 07:10:43;;;;;;;9.30;4.10;;;24.60;93.20;;;;;;5034782;28;20045;-49
2023/07/08 07:13:10;;;;;;;8.15;4.50;;;24.60;93.20;;;;;;5034684;28;20041;-54
2023/07/08 07:15:37;;;;;;;9.32;3.63;;;24.70;93.20;;;;;;5033643;28;20120;-46
2023/07/08 07:18:04;;;;;;;5.80;3.80;;;24.80;93.20;;;;;;5034568;28;20481;-46
2023/07/08 07:20:31;;;;;;;7.95;4.10;;;24.90;93.20;;;;;;5034315;28;20046;-50
2023/07/08 07:22:57;;;;;;;7.22;3.60;;;24.90;93.00;;;;;;5034681;28;20049;-45
2023/07/08 07:25:24;;;;;;;8.20;4.10;;;24.90;93.00;;;;;;5032984;28;20077;-44
2023/07/08 07:27:51;;;;;;;7.70;3.85;;;24.90;93.00;;;;;;5034276;28;20049;-44
2023/07/08 07:30:18;;;;;;;7.00;3.58;;;24.90;93.00;;;;;;5034038;28;20404;-46
2023/07/08 07:32:44;;;;;;;6.60;3.80;;;25.00;93.00;;;;;;5033929;28;20117;-48
2023/07/08 07:35:15;;;;;;;5.90;3.67;;;25.00;93.10;;;;;;5033935;28;20168;-49
2023/07/08 07:37:42;;;;;;;9.80;3.75;;;25.10;93.10;;;;;;5033777;28;20544;-48
2023/07/08 07:40:12;;;;;;;9.10;3.80;;;25.20;92.90;;;;;;5034100;28;20041;-47
2023/07/08 07:42:39;;;;;;;8.27;4.05;;;25.20;93.00;;;;;;5034273;28;20037;-51
2023/07/08 07:45:06;;;;;;;6.35;3.70;;;25.30;92.80;;;;;;5034349;28;20068;-49
2023/07/08 07:47:32;;;;;;;9.18;3.78;;;25.40;92.80;;;;;;5033206;28;20043;-52
2023/07/08 07:50:02;;;;;;;9.40;4.13;;;25.50;92.70;;;;;;5033857;28;20045;-51
2023/07/08 07:52:28;;;;;;;7.35;3.40;;;25.50;92.70;;;;;;5034112;28;20037;-46
2023/07/08 07:54:55;;;;;;;5.85;3.50;;;25.60;92.70;;;;;;5034243;28;20045;-50
2023/07/08 07:57:22;;;;;;;9.52;3.58;;;25.70;92.60;;;;;;5033791;28;20103;-47
2023/07/08 07:59:49;;;;;;;8.90;3.72;;;25.80;92.70;;;;;;5033706;28;20044;-54
2023/07/08 08:02:16;;;;;;;6.72;3.63;;;25.90;92.50;;;;;;5033957;28;20038;-52
2023/07/08 08:04:42;;;;;;;8.82;3.67;;;25.90;92.30;;;;;;5033572;28;20427;-48
2023/07/08 08:07:09;;;;;;;7.45;3.70;;;26.00;92.20;;;;;;5033750;28;20053;-48
2023/07/08 08:09:36;;;;;;;6.22;3.22;;;26.00;92.10;;;;;;5033454;28;20111;-49
2023/07/08 08:12:03;;;;;;;9.55;3.55;;;26.00;92.20;;;;;;5033453;28;20042;-47
2023/07/08 08:14:30;;;;;;;6.28;3.03;;;26.00;92.30;;;;;;5034064;28;20446;-50
2023/07/08 08:16:57;;;;;;;7.07;3.40;;;26.00;92.60;;;;;;5033771;28;20041;-48
2023/07/08 08:19:23;;;;;;;7.47;3.58;;;25.80;92.60;;;;;;5033807;28;20069;-50
2023/07/08 08:21:50;;;;;;;6.45;3.55;;;25.80;92.70;;;;;;5033613;28;20037;-49
2023/07/08 08:24:17;;;;;;;8.57;3.42;;;25.70;92.70;;;;;;5033678;28;20064;-49
2023/07/08 08:26:44;;;;;;;11.13;3.92;;;25.70;92.70;;;;;;5033599;28;20124;-46
2023/07/08 08:29:10;;;;;;;9.43;3.92;;;25.70;92.90;;;;;;5033322;28;20044;-46
2023/07/08 08:31:37;;;;;;;6.40;3.72;;;25.70;92.90;;;;;;5033906;28;20345;-49
2023/07/08 08:34:04;;;;;;;7.95;3.60;;;25.70;92.80;;;;;;5033265;28;20041;-45
2023/07/08 08:36:31;;;;;;;9.65;3.70;;;25.70;92.90;;;;;;5033383;28;20381;-46
2023/07/08 08:38:58;;;;;;;9.18;3.90;;;25.60;92.80;;;;;;5033195;28;20054;-51
2023/07/08 08:41:24;;;;;;;7.63;3.75;;;25.70;93.20;;;;;;5033714;28;20100;-46
2023/07/08 08:43:51;;;;;;;7.35;4.00;;;25.70;93.30;;;;;;5033259;28;20053;-46
2023/07/08 08:46:18;;;;;;;12.18;3.80;;;25.70;93.50;;;;;;5033493;28;20481;-48
2023/07/08 08:48:45;;;;;;;8.90;4.15;;;25.60;93.90;;;;;;5037081;28;20088;-53
2023/07/08 08:51:12;;;;;;;10.30;3.90;;;25.60;93.50;;;;;;5037132;28;20041;-44
2023/07/08 08:53:38;;;;;;;11.45;4.22;;;25.60;93.30;;;;;;5037414;28;20037;-44
2023/07/08 08:56:05;;;;;;;7.75;4.35;;;25.60;93.60;;;;;;5037268;28;20037;-46
2023/07/08 08:58:32;;;;;;;8.55;3.55;;;25.60;93.50;;;;;;5035605;28;20054;-46
2023/07/08 09:00:59;;;;;;;7.60;3.67;;;25.50;93.40;;;;;;5037099;28;20049;-47
2023/07/08 09:03:25;;;;;;;7.63;3.80;;;25.50;93.50;;;;;;5036964;28;20489;-47
2023/07/08 09:05:52;;;;;;;8.38;4.10;;;25.60;93.80;;;;;;5037066;28;20120;-46
2023/07/08 09:08:19;;;;;;;8.57;4.25;;;25.70;93.70;;;;;;5037291;28;20041;-45
2023/07/08 09:10:46;;;;;;;9.48;4.35;;;25.80;93.60;;;;;;5037178;28;20037;-47
2023/07/08 09:13:12;;;;;;;9.40;4.07;;;25.80;93.10;;;;;;5036826;28;20038;-50
2023/07/08 09:15:39;;;;;;;8.32;4.20;;;25.80;93.30;;;;;;5036640;28;20051;-51
2023/07/08 09:18:06;;;;;;;8.95;4.20;;;25.90;93.10;;;;;;5035327;28;20408;-49
2023/07/08 09:20:33;;;;;;;5.78;3.55;;;26.00;93.00;;;;;;5036776;28;20406;-52
2023/07/08 09:23:00;;;;;;;8.93;4.00;;;26.10;93.10;;;;;;5036336;28;20042;-48
2023/07/08 09:25:27;;;;;;;9.10;4.50;;;26.10;92.70;;;;;;5031449;28;20133;-47
2023/07/08 09:27:54;;;;;;;7.15;4.15;;;26.20;92.90;;;;;;5031225;28;20048;-47
2023/07/08 09:30:21;;;;;;;6.13;4.05;;;26.30;92.40;;;;;;5029206;28;20059;-44
2023/07/08 09:32:47;;;;;;;7.63;3.58;;;26.40;92.10;;;;;;5035870;28;20049;-46
2023/07/08 09:35:14;;;;;;;10.73;4.28;;;26.40;91.30;;;;;;5036293;28;20037;-48
2023/07/08 09:37:41;;;;;;;6.85;3.90;;;26.40;90.70;;;;;;5036253;28;20408;-46
2023/07/08 09:40:08;;;;;;;7.05;3.30;;;26.40;90.50;;;;;;5036000;28;20144;-49
2023/07/08 09:42:34;;;;;;;6.45;3.70;;;26.50;90.90;;;;;;5035407;28;20042;-49
2023/07/08 09:45:01;;;;;;;9.93;4.50;;;26.60;90.40;;;;;;5030144;28;20436;-49
2023/07/08 09:47:30;;;;;;;8.80;4.75;;;26.60;90.20;;;;;;5034937;28;20045;-50
2023/07/08 09:49:57;;;;;;;10.48;4.47;;;26.70;90.20;;;;;;5035146;28;20041;-48
2023/07/08 09:52:24;;;;;;;7.03;3.97;;;26.60;90.10;;;;;;5035819;28;20113;-46
2023/07/08 09:54:51;;;;;;;7.88;3.10;;;26.80;90.10;;;;;;5035088;28;20034;-46
2023/07/08 09:57:18;;;;;;;5.53;3.90;;;26.90;90.20;;;;;;5034344;28;21128;-47
2023/07/08 09:59:45;;;;;;;7.20;3.97;;;26.90;90.00;;;;;;5034166;28;20112;-48
2023/07/08 10:02:12;;;;;;;5.07;3.45;;;26.90;89.60;;;;;;5035853;28;20033;-48
2023/07/08 10:04:38;;;;;;;7.65;3.30;;;27.00;90.00;;;;;;5034322;28;20484;-45
2023/07/08 10:07:11;;;;;;;8.98;4.63;;;26.80;88.20;;;;;;5035541;28;20045;-45
2023/07/08 10:09:38;;;;;;;6.57;4.47;;;26.90;89.30;;;;;;5035450;28;20117;-48
2023/07/08 10:12:08;;;;;;;6.60;3.90;;;27.00;89.00;;;;;;5035185;28;20120;-50
2023/07/08 10:14:35;;;;;;;8.13;3.75;;;26.90;89.00;;;;;;5035163;28;20041;-51
2023/07/08 10:17:02;;;;;;;7.88;3.53;;;26.90;89.50;;;;;;5034058;28;20061;-46
2023/07/08 10:19:29;;;;;;;5.80;3.35;;;27.00;89.70;;;;;;5035139;28;20441;-51
2023/07/08 10:21:59;;;;;;;8.10;3.72;;;27.20;88.80;;;;;;5035182;28;20038;-50
2023/07/08 10:24:26;;;;;;;5.50;3.40;;;27.40;89.00;;;;;;5034690;28;20045;-47
2023/07/08 10:26:52;;;;;;;9.88;3.38;;;27.40;87.70;;;;;;5034969;28;20045;-52
2023/07/08 10:29:19;;;;;;;5.22;3.33;;;27.50;86.60;;;;;;5034390;28;20047;-46
2023/07/08 10:31:46;;;;;;;5.20;4.15;;;27.30;86.80;;;;;;5035345;28;20042;-48
2023/07/08 10:34:14;;;;;;;6.63;3.40;;;27.20;86.90;;;;;;5034584;28;20034;-46
2023/07/08 10:36:41;;;;;;;6.10;3.15;;;27.20;87.70;;;;;;5034811;28;20033;-46
2023/07/08 10:39:07;;;;;;;7.20;3.40;;;27.20;88.10;;;;;;5035012;28;20041;-50
2023/07/08 10:41:34;;;;;;;9.07;3.40;;;27.10;87.80;;;;;;5034145;28;20103;-44
2023/07/08 10:44:01;;;;;;;5.85;3.28;;;27.10;87.90;;;;;;5034853;28;20548;-51
2023/07/08 10:46:28;;;;;;;9.38;3.35;;;27.10;88.10;;;;;;5034335;28;20072;-52
2023/07/08 10:48:55;;;;;;;7.80;3.47;;;27.00;87.40;;;;;;5034655;28;20065;-50
2023/07/08 10:51:21;;;;;;;10.57;3.60;;;27.00;88.30;;;;;;5033931;28;20515;-45
2023/07/08 10:53:48;;;;;;;4.78;3.00;;;27.00;88.90;;;;;;5034321;28;20120;-51
2023/07/08 10:56:15;;;;;;;6.93;3.13;;;26.90;88.30;;;;;;5033886;28;20038;-50
2023/07/08 10:58:42;;;;;;;4.20;2.60;;;26.80;88.70;;;;;;5033058;28;20405;-50
2023/07/08 11:01:09;;;;;;;5.40;2.88;;;26.80;88.50;;;;;;5033891;28;20037;-47
2023/07/08 11:03:35;;;;;;;6.45;2.75;;;26.70;89.60;;;;;;5034211;28;20655;-47
2023/07/08 11:06:02;;;;;;;8.20;2.70;;;26.70;88.60;;;;;;5034444;28;20049;-45
2023/07/08 11:08:29;;;;;;;3.83;2.60;;;26.60;89.40;;;;;;5032854;28;20049;-48
2023/07/08 11:10:56;;;;;;;7.85;2.38;;;26.60;89.10;;;;;;5033851;28;20052;-45
2023/07/08 11:13:44;;;;;;;5.85;2.60;;;26.50;90.20;;;;;;5034020;28;20095;-48
2023/07/08 11:16:11;;;;;;;5.22;3.05;;;26.30;90.50;;;;;;5033394;28;20041;-50
2023/07/08 11:18:38;;;;;;;6.18;3.53;;;26.10;90.60;;;;;;5033919;28;20540;-48
2023/07/08 11:21:05;;;;;;;8.60;3.70;;;26.00;90.80;;;;;;5033447;28;20052;-48
2023/07/08 11:23:32;;;;;;;7.53;3.30;;;25.90;90.90;;;;;;5033970;28;20048;-46
2023/07/08 11:25:59;;;;;;;7.03;3.15;;;25.90;91.30;;;;;;5033363;28;20473;-48
2023/07/08 11:28:26;;;;;;;8.98;3.20;;;25.80;91.30;;;;;;5033737;28;20103;-49
2023/07/08 11:30:52;;;;;;;8.60;2.97;;;25.80;91.10;;;;;;5030833;28;20033;-47
2023/07/08 11:33:19;;;;;;;7.07;2.90;;;25.90;91.00;;;;;;5034284;28;20045;-47
2023/07/08 11:35:46;;;;;;;8.98;3.05;;;25.80;91.10;;;;;;5033844;28;20076;-46
2023/07/08 11:38:15;;;;;;;7.00;2.80;;;25.70;90.90;;;;;;5033106;28;20047;-45
2023/07/08 11:40:42;;;;;;;5.03;2.80;;;25.60;90.70;;;;;;5032329;28;20049;-47
2023/07/08 11:43:09;;;;;;;5.32;2.72;;;25.40;90.80;;;;;;5032939;28;20056;-49
2023/07/08 11:45:36;;;;;;;6.50;2.80;;;25.40;91.00;;;;;;5033500;28;20641;-46
2023/07/08 11:48:02;;;;;;;4.75;2.60;;;25.20;90.80;;;;;;5032994;28;20042;-50
2023/07/08 11:50:29;;;;;;;6.88;3.00;;;25.20;90.80;;;;;;5033012;28;20052;-52
2023/07/08 11:52:56;;;;;;;7.45;2.70;;;25.20;90.60;;;;;;5033401;28;20116;-52
2023/07/08 11:55:28;;;;;;;4.57;2.65;;;25.30;90.70;;;;;;5032733;28;20048;-52
2023/07/08 11:57:57;;;;;;;4.18;2.92;;;25.20;90.60;;;;;;5033039;28;20457;-47
2023/07/08 12:00:24;;;;;;;6.90;3.08;;;25.20;90.80;;;;;;5032385;28;20038;-47
2023/07/08 12:02:51;;;;;;;6.85;2.88;;;25.20;90.90;;;;;;5033616;28;20136;-45
2023/07/08 12:05:18;;;;;;;5.38;2.83;;;25.20;91.10;;;;;;5032642;28;20037;-49
2023/07/08 12:07:45;;;;;;;7.20;2.95;;;25.20;91.20;;;;;;5033392;28;20044;-48
2023/07/08 12:10:14;;;;;;;5.05;2.75;;;25.20;91.70;;;;;;5031528;28;20399;-49
2023/07/08 12:12:41;;;;;;;9.35;3.35;;;25.20;91.60;;;;;;5032085;28;20045;-47
2023/07/08 12:15:08;;;;;;;5.60;3.00;;;25.10;92.40;;;;;;5031889;28;20488;-47
2023/07/08 12:17:34;;;;;;;6.53;3.25;;;24.90;92.30;;;;;;5032630;28;20041;-51
2023/07/08 12:20:03;;;;;;;7.32;3.60;;;24.80;93.10;;;;;;5033264;28;20037;-50
2023/07/08 12:22:30;;;;;;;6.03;3.17;;;24.60;93.90;;;;;;5032578;28;20041;-48
2023/07/08 12:24:58;;;;;;;6.85;3.42;;;24.40;93.90;;;;;;5032348;28;20121;-49
2023/07/08 12:27:25;;;;;;;7.53;3.50;;;24.20;94.80;;;;;;5031990;28;20087;-50
2023/07/08 12:29:52;;;;;;;6.32;3.45;;;23.90;96.00;;;;;;5033331;28;20041;-53
2023/07/08 12:32:22;;;;;;;7.13;3.55;;;23.70;95.70;;;;;;5032635;28;20041;-50
2023/07/08 12:34:49;;;;;;;7.80;3.08;;;23.70;95.80;;;;;;5033020;28;20046;-47
2023/07/08 12:37:16;;;;;;;5.90;3.40;;;23.60;97.00;;;;;;5033190;28;20037;-52
2023/07/08 12:39:43;;;;;;;6.95;3.40;;;23.70;98.00;;;;;;5033029;28;20045;-49
2023/07/08 12:42:10;;;;;;;6.68;3.35;;;23.80;98.50;;;;;;5033280;28;20049;-50
2023/07/08 12:44:37;;;;;;;5.57;3.63;;;23.90;98.70;;;;;;5032652;28;20038;-49